Wolgastern — CQLH — position and weather

sailwx.info

Track history (hours):
 
Tides and Currents Weather Stations Pressure Air Temp Water Temp Dewpoint Dewpoint Depression Visibility Wind Speed Wind Dir Waves Ship Positions

Wolgastern

Last reported at 2015-Jul-07 17:34 UTC. Time now 2015-Jul-07 17:40 UTC.
Position N 54°24' E 011°53'.

Length 162 m; draft 6.6 m.

Type: Ship. MMSI: 255804950.

Date/timePositionNaut miles runAvg speedWind from/ knotsBaromVisibWave heightAir tempDewpointWater temp
2015-Jul-07 17:34N 54°24' E 011°53'1212.3
2015-Jul-07 16:33N 54°28' E 011°33'1212.3
2015-Jul-07 15:34N 54°34' E 011°14'1212.2
2015-Jul-07 14:34N 54°34' E 010°53'1212.3
2015-Jul-07 13:34N 54°33' E 010°32'1111.2
2015-Jul-07 12:34N 54°27' E 010°15'7 6.6
2015-Jul-07 11:34N 54°22' E 010°09'4 4.2
2015-Jul-07 10:34N 54°22' E 010°01'8 7.5
2015-Jul-07 09:34N 54°22' E 009°48'7 7.3
2015-Jul-07 08:34N 54°17' E 009°39'8 7.8
2015-Jul-07 07:34N 54°11' E 009°30'8 7.6
2015-Jul-07 06:32N 54°06' E 009°20'8 8.2
2015-Jul-07 05:33N 53°59' E 009°16'5 5.1
2015-Jul-07 04:34N 53°55' E 009°11'0 0.0
2015-Jul-07 03:34N 53°55' E 009°11'0 0.0
2015-Jul-07 02:34N 53°55' E 009°11'2 1.7
2015-Jul-07 01:33N 53°54' E 009°09'2 2.2
2015-Jul-07 00:33N 53°53' E 009°05'0 0.1
2015-Jul-06 23:34N 53°53' E 009°05'2 1.8
2015-Jul-06 22:34N 53°52' E 009°03'9 9.3
2015-Jul-06 21:33N 53°50' E 008°47'9 9.3
2015-Jul-06 20:33N 53°57' E 008°37'1110.5
2015-Jul-06 19:33N 53°59' E 008°19'1111.4
2015-Jul-06 18:33N 54°01' E 007°60'1212.0
2015-Jul-06 17:34N 54°07' E 007°42'1211.8
2015-Jul-06 16:33N 54°09' E 007°22'1212.3
2015-Jul-06 15:33N 54°09' E 007°01'1313.1
2015-Jul-06 14:33N 54°09' E 006°39'1413.2
2015-Jul-06 13:30N 54°08' E 006°16'1313.8
2015-Jul-06 12:33N 54°06' E 005°53'1414.1
2015-Jul-06 11:33N 54°04' E 005°29'1414.3
2015-Jul-06 10:33N 54°02' E 005°05'1413.7
2015-Jul-06 09:34N 53°60' E 004°43'15012.5
2015-Jul-05 21:30N 51°57' E 002°17'1212.2
2015-Jul-05 20:34N 51°51' E 002°02'1212.0
2015-Jul-05 19:34N 51°42' E 001°49'1212.0
2015-Jul-05 18:34N 51°31' E 001°40'10 9.6
2015-Jul-05 17:33N 51°28' E 001°25'1515.3
2015-Jul-05 16:33N 51°29' E 001°01'1414.3
2015-Jul-05 15:33N 51°30' E 000°38'12 0.3
2015-Jul-03 15:34N 51°28' E 000°18'5 4.5
2015-Jul-03 14:34N 51°27' E 000°25'9 8.9
2015-Jul-03 13:34N 51°30' E 000°39'1312.7
2015-Jul-03 12:34N 51°29' E 000°59'1212.4
2015-Jul-03 11:34N 51°36' E 001°16'1212.4
2015-Jul-03 10:34N 51°45' E 001°30'9 8.8
2015-Jul-03 09:34N 51°51' E 001°39'2 2.4
2015-Jul-03 08:34N 51°54' E 001°41'0 0.0
2015-Jul-03 07:34N 51°54' E 001°41'0 0.0
2015-Jul-03 06:34N 51°54' E 001°41'0 0.1
2015-Jul-03 05:33N 51°54' E 001°41'0 0.0
2015-Jul-03 04:34N 51°54' E 001°41'0 0.0
2015-Jul-03 03:34N 51°54' E 001°41'0 0.0
2015-Jul-03 02:34N 51°54' E 001°41'0 0.0
2015-Jul-03 01:34N 51°54' E 001°41'0 0.1
2015-Jul-03 00:34N 51°54' E 001°41'0 0.1
2015-Jul-02 23:34N 51°54' E 001°41'0 0.0
2015-Jul-02 22:34N 51°54' E 001°41'0 0.0
2015-Jul-02 21:34N 51°54' E 001°41'0 0.0
2015-Jul-02 20:34N 51°54' E 001°41'0 0.0
2015-Jul-02 19:34N 51°54' E 001°41'2 1.9
2015-Jul-02 18:34N 51°54' E 001°43'10 9.5
2015-Jul-02 17:34N 51°51' E 001°58'1010.4
2015-Jul-02 16:33N 51°57' E 002°12'1010.1
2015-Jul-02 15:33N 52°04' E 002°24'1310.0
2015-Jul-02 14:16N 52°13' E 002°39'7 9.9
2015-Jul-02 13:33N 52°19' E 002°44'1110.1
2015-Jul-02 12:30N 52°28' E 002°52'1111.7
2015-Jul-02 11:34N 52°38' E 003°01'1712.5
2015-Jul-02 10:11N 52°53' E 003°15'912.8
2015-Jul-02 09:31N 53°01' E 003°19'6811.0
2015-Jul-02 03:19N 53°60' E 004°17'911.7
2015-Jul-02 02:32N 54°03' E 004°32'1212.6
2015-Jul-02 01:33N 54°06' E 004°52'1212.4
2015-Jul-02 00:33N 54°06' E 005°13'1212.4
2015-Jul-01 23:34N 54°08' E 005°34'1211.9
2015-Jul-01 22:33N 54°09' E 005°55'1111.1
2015-Jul-01 21:33N 54°11' E 006°13'1110.9
2015-Jul-01 20:33N 54°12' E 006°32'1310.9
2015-Jul-01 19:23N 54°12' E 006°54'2011.0
2015-Jul-01 17:33N 54°12' E 007°28'1212.1
2015-Jul-01 16:33N 54°07' E 007°47'1313.0
2015-Jul-01 15:34N 54°01' E 008°06'1413.8
2015-Jul-01 14:33N 53°59' E 008°29'1212.3
2015-Jul-01 13:34N 53°51' E 008°46'1010.5
2015-Jul-01 12:33N 53°52' E 009°03'3 3.5
2015-Jul-01 11:33N 53°54' E 009°09'4 3.6
2015-Jul-01 10:33N 53°56' E 009°13'6 6.5
2015-Jul-01 09:33N 54°02' E 009°18'2 2.2
2015-Jul-01 08:33N 54°04' E 009°19'7 6.2
2015-Jul-01 07:30N 54°10' E 009°25'4 4.6
2015-Jul-01 06:33N 54°11' E 009°31'6 6.4
2015-Jul-01 05:32N 54°17' E 009°38'5 5.6
2015-Jul-01 04:33N 54°20' E 009°45'5 5.4
2015-Jul-01 03:33N 54°21' E 009°54'5 5.1
2015-Jul-01 02:34N 54°22' E 010°03'3 3.4
2015-Jul-01 01:34N 54°22' E 010°09'2 2.4
2015-Jul-01 00:34N 54°23' E 010°12'9 9.3
2015-Jun-30 23:33N 54°31' E 010°21'1611.6
2015-Jun-30 22:09N 54°35' E 010°49'712.2
2015-Jun-30 21:33N 54°36' E 011°01'1111.0
2015-Jun-30 20:34N 54°34' E 011°19'1212.0
2015-Jun-30 19:33N 54°28' E 011°38'1111.5
2015-Jun-30 18:33N 54°26' E 011°57'1010.0
2015-Jun-30 17:33N 54°30' E 012°13'8710.9
2015-Jun-30 09:34N 55°17' E 014°21'1111.1
2015-Jun-30 08:33N 55°25' E 014°34'1111.2
2015-Jun-30 07:33N 55°31' E 014°50'1311.6
2015-Jun-30 06:27N 55°37' E 015°10'1211.5
2015-Jun-30 05:23N 55°41' E 015°31'8411.4
2015-Jun-29 22:04N 56°01' E 017°55'611.4
2015-Jun-29 21:31N 55°56' E 018°02'96 2.0
2015-Jun-27 21:31N 55°47' E 020°51'  
Track history (hours):
 
Tides and Currents Weather Stations Pressure Air Temp Water Temp Dewpoint Dewpoint Depression Visibility Wind Speed Wind Dir Waves Ship Positions

Wolgastern

Last reported at 2015-Jul-07 17:34 UTC. Time now 2015-Jul-07 17:40 UTC.
Position N 54°24' E 011°53'.

Length 162 m; draft 6.6 m.

Type: Ship. MMSI: 255804950.

Date/timePositionNaut miles runAvg speedWind from/ knotsBaromVisibWave heightAir tempDewpointWater temp
2015-Jul-07 17:34N 54°24' E 011°53'1212.3
2015-Jul-07 16:33N 54°28' E 011°33'1212.3
2015-Jul-07 15:34N 54°34' E 011°14'1212.2
2015-Jul-07 14:34N 54°34' E 010°53'1212.3
2015-Jul-07 13:34N 54°33' E 010°32'1111.2
2015-Jul-07 12:34N 54°27' E 010°15'7 6.6
2015-Jul-07 11:34N 54°22' E 010°09'4 4.2
2015-Jul-07 10:34N 54°22' E 010°01'8 7.5
2015-Jul-07 09:34N 54°22' E 009°48'7 7.3
2015-Jul-07 08:34N 54°17' E 009°39'8 7.8
2015-Jul-07 07:34N 54°11' E 009°30'8 7.6
2015-Jul-07 06:32N 54°06' E 009°20'8 8.2
2015-Jul-07 05:33N 53°59' E 009°16'5 5.1
2015-Jul-07 04:34N 53°55' E 009°11'0 0.0
2015-Jul-07 03:34N 53°55' E 009°11'0 0.0
2015-Jul-07 02:34N 53°55' E 009°11'2 1.7
2015-Jul-07 01:33N 53°54' E 009°09'2 2.2
2015-Jul-07 00:33N 53°53' E 009°05'0 0.1
2015-Jul-06 23:34N 53°53' E 009°05'2 1.8
2015-Jul-06 22:34N 53°52' E 009°03'9 9.3
2015-Jul-06 21:33N 53°50' E 008°47'9 9.3
2015-Jul-06 20:33N 53°57' E 008°37'1110.5
2015-Jul-06 19:33N 53°59' E 008°19'1111.4
2015-Jul-06 18:33N 54°01' E 007°60'1212.0
2015-Jul-06 17:34N 54°07' E 007°42'1211.8
2015-Jul-06 16:33N 54°09' E 007°22'1212.3
2015-Jul-06 15:33N 54°09' E 007°01'1313.1
2015-Jul-06 14:33N 54°09' E 006°39'1413.2
2015-Jul-06 13:30N 54°08' E 006°16'1313.8
2015-Jul-06 12:33N 54°06' E 005°53'1414.1
2015-Jul-06 11:33N 54°04' E 005°29'1414.3
2015-Jul-06 10:33N 54°02' E 005°05'1413.7
2015-Jul-06 09:34N 53°60' E 004°43'15012.5
2015-Jul-05 21:30N 51°57' E 002°17'1212.2
2015-Jul-05 20:34N 51°51' E 002°02'1212.0
2015-Jul-05 19:34N 51°42' E 001°49'1212.0
2015-Jul-05 18:34N 51°31' E 001°40'10 9.6
2015-Jul-05 17:33N 51°28' E 001°25'1515.3
2015-Jul-05 16:33N 51°29' E 001°01'1414.3
2015-Jul-05 15:33N 51°30' E 000°38'12 0.3
2015-Jul-03 15:34N 51°28' E 000°18'5 4.5
2015-Jul-03 14:34N 51°27' E 000°25'9 8.9
2015-Jul-03 13:34N 51°30' E 000°39'1312.7
2015-Jul-03 12:34N 51°29' E 000°59'1212.4
2015-Jul-03 11:34N 51°36' E 001°16'1212.4
2015-Jul-03 10:34N 51°45' E 001°30'9 8.8
2015-Jul-03 09:34N 51°51' E 001°39'2 2.4
2015-Jul-03 08:34N 51°54' E 001°41'0 0.0
2015-Jul-03 07:34N 51°54' E 001°41'0 0.0
2015-Jul-03 06:34N 51°54' E 001°41'0 0.1
2015-Jul-03 05:33N 51°54' E 001°41'0 0.0
2015-Jul-03 04:34N 51°54' E 001°41'0 0.0
2015-Jul-03 03:34N 51°54' E 001°41'0 0.0
2015-Jul-03 02:34N 51°54' E 001°41'0 0.0
2015-Jul-03 01:34N 51°54' E 001°41'0 0.1
2015-Jul-03 00:34N 51°54' E 001°41'0 0.1
2015-Jul-02 23:34N 51°54' E 001°41'0 0.0
2015-Jul-02 22:34N 51°54' E 001°41'0 0.0
2015-Jul-02 21:34N 51°54' E 001°41'0 0.0
2015-Jul-02 20:34N 51°54' E 001°41'0 0.0
2015-Jul-02 19:34N 51°54' E 001°41'2 1.9
2015-Jul-02 18:34N 51°54' E 001°43'10 9.5
2015-Jul-02 17:34N 51°51' E 001°58'1010.4
2015-Jul-02 16:33N 51°57' E 002°12'1010.1
2015-Jul-02 15:33N 52°04' E 002°24'1310.0
2015-Jul-02 14:16N 52°13' E 002°39'7 9.9
2015-Jul-02 13:33N 52°19' E 002°44'1110.1
2015-Jul-02 12:30N 52°28' E 002°52'1111.7
2015-Jul-02 11:34N 52°38' E 003°01'1712.5
2015-Jul-02 10:11N 52°53' E 003°15'912.8
2015-Jul-02 09:31N 53°01' E 003°19'6811.0
2015-Jul-02 03:19N 53°60' E 004°17'911.7
2015-Jul-02 02:32N 54°03' E 004°32'1212.6
2015-Jul-02 01:33N 54°06' E 004°52'1212.4
2015-Jul-02 00:33N 54°06' E 005°13'1212.4
2015-Jul-01 23:34N 54°08' E 005°34'1211.9
2015-Jul-01 22:33N 54°09' E 005°55'1111.1
2015-Jul-01 21:33N 54°11' E 006°13'1110.9
2015-Jul-01 20:33N 54°12' E 006°32'1310.9
2015-Jul-01 19:23N 54°12' E 006°54'2011.0
2015-Jul-01 17:33N 54°12' E 007°28'1212.1
2015-Jul-01 16:33N 54°07' E 007°47'1313.0
2015-Jul-01 15:34N 54°01' E 008°06'1413.8
2015-Jul-01 14:33N 53°59' E 008°29'1212.3
2015-Jul-01 13:34N 53°51' E 008°46'1010.5
2015-Jul-01 12:33N 53°52' E 009°03'3 3.5
2015-Jul-01 11:33N 53°54' E 009°09'4 3.6
2015-Jul-01 10:33N 53°56' E 009°13'6 6.5
2015-Jul-01 09:33N 54°02' E 009°18'2 2.2
2015-Jul-01 08:33N 54°04' E 009°19'7 6.2
2015-Jul-01 07:30N 54°10' E 009°25'4 4.6
2015-Jul-01 06:33N 54°11' E 009°31'6 6.4
2015-Jul-01 05:32N 54°17' E 009°38'5 5.6
2015-Jul-01 04:33N 54°20' E 009°45'5 5.4
2015-Jul-01 03:33N 54°21' E 009°54'5 5.1
2015-Jul-01 02:34N 54°22' E 010°03'3 3.4
2015-Jul-01 01:34N 54°22' E 010°09'2 2.4
2015-Jul-01 00:34N 54°23' E 010°12'9 9.3
2015-Jun-30 23:33N 54°31' E 010°21'1611.6
2015-Jun-30 22:09N 54°35' E 010°49'712.2
2015-Jun-30 21:33N 54°36' E 011°01'1111.0
2015-Jun-30 20:34N 54°34' E 011°19'1212.0
2015-Jun-30 19:33N 54°28' E 011°38'1111.5
2015-Jun-30 18:33N 54°26' E 011°57'1010.0
2015-Jun-30 17:33N 54°30' E 012°13'8710.9
2015-Jun-30 09:34N 55°17' E 014°21'1111.1
2015-Jun-30 08:33N 55°25' E 014°34'1111.2
2015-Jun-30 07:33N 55°31' E 014°50'1311.6
2015-Jun-30 06:27N 55°37' E 015°10'1211.5
2015-Jun-30 05:23N 55°41' E 015°31'8411.4
2015-Jun-29 22:04N 56°01' E 017°55'611.4
2015-Jun-29 21:31N 55°56' E 018°02'96 2.0
2015-Jun-27 21:31N 55°47' E 020°51'  

Dump ship's entire track history